Time;durP1;ratioP1;P1;durP2;ratioP2;P2;SDS_P1;SDS_P2;PMS_P1;PMS_P2;Temp;Humidity;BMP_temperature;BMP_pressure;BME280_temperature;BME280_humidity;BME280_pressure;Samples;Min_cycle;Max_cycle;Signal;HPM_P1;HPM_P2
2021/07/13 00:01:22;;;;;;;21.53;14.57;;;;;;;33.54;39.32;100552.81;4997420;28;20474;-51
2021/07/13 00:03:51;;;;;;;18.07;14.47;;;;;;;33.42;39.75;100552.66;4996222;28;20462;-50
2021/07/13 00:06:19;;;;;;;23.03;17.87;;;;;;;33.25;40.09;100552.69;4994913;28;21262;-52
2021/07/13 00:08:46;;;;;;;24.57;15.73;;;;;;;33.34;39.83;100561.09;4996266;28;20458;-48
2021/07/13 00:11:15;;;;;;;21.60;15.07;;;;;;;33.47;39.71;100556.78;4995034;28;20481;-48
2021/07/13 00:13:42;;;;;;;19.77;15.30;;;;;;;33.10;40.38;100558.88;4996100;28;20457;-49
2021/07/13 00:16:11;;;;;;;18.67;14.37;;;;;;;33.58;39.21;100561.50;4994750;28;20474;-51
2021/07/13 00:18:39;;;;;;;18.93;14.67;;;;;;;33.66;39.08;100561.06;4996251;28;20473;-49
2021/07/13 00:21:07;;;;;;;90.93;60.00;;;;;;;33.79;38.88;100572.75;4995134;28;20470;-49
2021/07/13 00:23:35;;;;;;;44.67;25.87;;;;;;;33.32;39.97;100569.22;4995744;28;20497;-50
2021/07/13 00:26:03;;;;;;;25.83;18.63;;;;;;;33.51;39.24;100577.06;4994693;28;20581;-50
2021/07/13 00:28:32;;;;;;;22.83;16.47;;;;;;;33.20;40.00;100585.94;4997497;28;20466;-50
2021/07/13 00:31:00;;;;;;;38.47;24.00;;;;;;;33.08;40.39;100584.84;4994943;28;20497;-51
2021/07/13 00:33:28;;;;;;;30.37;21.13;;;;;;;33.21;40.12;100583.19;4995741;28;20464;-47
2021/07/13 00:35:57;;;;;;;31.07;22.10;;;;;;;32.77;41.20;100583.84;4997320;28;20541;-47
2021/07/13 00:38:25;;;;;;;25.20;18.80;;;;;;;33.13;40.19;100572.94;4995555;28;20497;-49
2021/07/13 00:40:53;;;;;;;23.60;15.83;;;;;;;33.07;40.55;100580.44;4994947;28;20516;-50
2021/07/13 00:43:20;;;;;;;26.50;16.03;;;;;;;32.69;41.40;100571.78;4995134;28;20502;-46
2021/07/13 00:45:49;;;;;;;30.10;21.03;;;;;;;33.30;40.02;100565.78;4994578;28;20913;-50
2021/07/13 00:48:18;;;;;;;24.90;17.07;;;;;;;33.45;39.57;100569.38;4995617;28;20494;-47
2021/07/13 00:50:46;;;;;;;24.97;18.93;;;;;;;33.31;40.00;100572.00;4994826;28;20931;-49
2021/07/13 00:53:14;;;;;;;27.37;17.00;;;;;;;33.00;40.59;100571.91;4995336;28;20844;-47
2021/07/13 00:55:41;;;;;;;27.87;18.53;;;;;;;33.46;39.35;100565.75;4995171;28;20469;-47
2021/07/13 00:58:09;;;;;;;25.90;19.83;;;;;;;33.11;40.53;100560.63;4994536;28;20486;-47
2021/07/13 01:00:36;;;;;;;22.53;15.87;;;;;;;33.05;40.67;100561.81;4995510;28;20589;-48
2021/07/13 01:03:06;;;;;;;19.33;15.10;;;;;;;33.20;40.15;100556.56;4994524;28;20485;-49
2021/07/13 01:05:37;;;;;;;21.77;16.70;;;;;;;33.16;40.31;100557.69;4995102;28;20453;-48
2021/07/13 01:08:20;;;;;;;27.90;17.67;;;;;;;32.83;40.67;100563.00;4994450;28;20482;-47
2021/07/13 01:10:53;;;;;;;29.40;21.13;;;;;;;33.27;39.98;100558.78;4995029;28;20484;-50
2021/07/13 01:13:29;;;;;;;27.93;18.40;;;;;;;32.99;40.50;100557.69;4995115;28;20478;-49
2021/07/13 01:16:01;;;;;;;28.33;19.27;;;;;;;33.27;40.08;100553.44;4994410;28;20904;-50
2021/07/13 01:18:32;;;;;;;29.27;20.83;;;;;;;33.18;40.23;100561.13;4995313;28;20458;-48
2021/07/13 01:21:08;;;;;;;19.60;16.50;;;;;;;33.47;39.48;100567.47;4994219;28;20483;-48
2021/07/13 01:23:42;;;;;;;26.70;18.13;;;;;;;33.51;39.72;100562.81;4995267;28;20482;-47
2021/07/13 01:26:17;;;;;;;24.83;17.07;;;;;;;33.48;39.67;100561.16;4993788;28;20481;-48
2021/07/13 01:28:49;;;;;;;23.00;17.27;;;;;;;33.59;39.42;100546.34;4995338;28;20457;-48
2021/07/13 01:31:18;;;;;;;24.20;18.33;;;;;;;33.58;39.16;100547.31;4993905;28;20478;-50
2021/07/13 01:33:50;;;;;;;24.50;17.70;;;;;;;33.64;38.93;100541.59;4995408;28;20468;-48
2021/07/13 01:36:23;;;;;;;23.57;16.53;;;;;;;33.13;40.30;100545.38;4993773;28;20470;-47
2021/07/13 01:38:52;;;;;;;24.53;17.33;;;;;;;33.08;40.55;100540.28;4995387;28;20465;-49
2021/07/13 01:41:22;;;;;;;26.47;17.43;;;;;;;33.07;40.28;100541.22;4996255;28;20486;-48
2021/07/13 01:43:52;;;;;;;29.67;19.93;;;;;;;33.27;39.87;100534.75;4998519;28;20482;-48
2021/07/13 01:46:21;;;;;;;27.83;18.43;;;;;;;33.43;39.87;100533.88;4994698;28;20478;-47
2021/07/13 01:48:52;;;;;;;23.73;16.77;;;;;;;33.19;40.32;100529.00;4998772;28;20462;-48
2021/07/13 01:51:21;;;;;;;20.97;16.53;;;;;;;33.09;40.31;100517.09;4997395;28;20478;-47
2021/07/13 01:53:49;;;;;;;26.63;17.30;;;;;;;33.56;39.58;100509.97;4998662;28;20892;-47
2021/07/13 01:56:18;;;;;;;26.77;17.77;;;;;;;33.82;38.84;100506.69;5013601;28;20927;-48
2021/07/13 01:58:46;;;;;;;22.47;19.27;;;;;;;33.72;38.93;100498.38;5018023;28;20463;-48
2021/07/13 02:01:18;;;;;;;27.07;20.70;;;;;;;33.93;38.56;100499.72;5016678;28;20481;-48
2021/07/13 02:03:47;;;;;;;28.10;18.70;;;;;;;33.90;38.65;100499.03;5017868;28;20539;-53
2021/07/13 02:06:16;;;;;;;30.37;17.77;;;;;;;34.01;38.28;100501.06;5016491;28;20477;-47
2021/07/13 02:08:46;;;;;;;26.70;17.67;;;;;;;33.75;38.99;100500.84;5017966;28;20469;-50
2021/07/13 02:11:14;;;;;;;26.50;17.40;;;;;;;33.44;39.47;100498.16;5016507;28;20481;-48
2021/07/13 02:13:41;;;;;;;28.40;19.33;;;;;;;33.50;39.50;100500.50;5017650;28;20458;-48
2021/07/13 02:16:09;;;;;;;25.93;19.27;;;;;;;33.30;39.99;100500.75;5015522;28;20477;-49
2021/07/13 02:18:38;;;;;;;26.80;18.63;;;;;;;33.04;40.36;100511.16;5017765;28;20461;-50
2021/07/13 02:21:06;;;;;;;23.77;18.00;;;;;;;32.73;41.27;100509.25;5016250;28;21199;-49
2021/07/13 02:23:33;;;;;;;21.50;17.50;;;;;;;32.69;41.04;100510.38;5017516;28;20492;-50
2021/07/13 02:26:04;;;;;;;23.37;18.37;;;;;;;32.93;40.71;100504.59;5012911;28;20457;-51
2021/07/13 02:28:34;;;;;;;32.23;19.57;;;;;;;33.09;40.09;100506.41;5014281;28;20565;-48
2021/07/13 02:31:03;;;;;;;27.83;18.50;;;;;;;32.92;40.60;100492.19;5016401;28;20503;-49
2021/07/13 02:33:34;;;;;;;29.30;19.30;;;;;;;32.93;40.33;100509.06;5017467;28;20461;-46
2021/07/13 02:36:09;;;;;;;24.90;18.87;;;;;;;32.86;40.85;100505.91;5015944;28;20463;-48
2021/07/13 02:38:37;;;;;;;24.77;19.77;;;;;;;32.77;40.93;100504.59;5017562;28;20461;-47
2021/07/13 02:41:06;;;;;;;28.30;20.13;;;;;;;32.80;40.56;100498.22;5015990;28;20793;-49
2021/07/13 02:43:34;;;;;;;31.10;19.60;;;;;;;33.10;40.26;100495.63;5017264;28;20485;-46
2021/07/13 02:46:01;;;;;;;27.80;18.00;;;;;;;32.83;40.46;100501.59;5015608;28;20922;-48
2021/07/13 02:48:29;;;;;;;28.43;20.23;;;;;;;32.82;40.56;100501.66;5017202;28;20500;-47
2021/07/13 02:50:57;;;;;;;35.33;20.67;;;;;;;33.29;39.64;100502.59;5015918;28;20950;-49
2021/07/13 02:53:28;;;;;;;28.67;20.90;;;;;;;33.43;39.26;100499.13;5016136;28;20488;-49
2021/07/13 02:55:56;;;;;;;28.80;20.13;;;;;;;32.72;41.06;100504.00;5015545;28;20462;-52
2021/07/13 02:58:23;;;;;;;28.10;20.27;;;;;;;32.85;40.40;100496.13;5016670;28;20507;-47
2021/07/13 03:00:51;;;;;;;29.50;20.50;;;;;;;32.16;41.95;100494.50;5016022;28;20500;-46
2021/07/13 03:03:22;;;;;;;33.37;21.10;;;;;;;32.05;42.11;100483.53;5016580;28;20512;-46
2021/07/13 03:05:50;;;;;;;32.37;21.93;;;;;;;32.56;41.28;100493.31;5015736;28;20552;-46
2021/07/13 03:08:20;;;;;;;34.43;23.37;;;;;;;33.04;40.12;100496.00;5016545;28;20492;-50
2021/07/13 03:10:49;;;;;;;32.03;23.00;;;;;;;33.09;39.88;100498.41;5016288;28;20477;-49
2021/07/13 03:13:17;;;;;;;31.97;23.20;;;;;;;33.11;39.98;100496.50;5016700;28;20489;-46
2021/07/13 03:15:44;;;;;;;34.93;23.87;;;;;;;32.98;39.93;100497.22;5016306;28;20461;-50
2021/07/13 03:18:12;;;;;;;35.97;23.93;;;;;;;32.66;40.92;100496.31;5016092;28;20470;-49
2021/07/13 03:20:40;;;;;;;35.90;25.57;;;;;;;32.88;40.58;100487.97;5016494;28;20481;-46
2021/07/13 03:23:19;;;;;;;47.10;24.90;;;;;;;33.03;40.06;100493.41;5016207;28;20515;-49
2021/07/13 03:25:49;;;;;;;38.27;26.17;;;;;;;32.57;41.03;100511.03;5015681;28;20752;-48
2021/07/13 03:28:17;;;;;;;39.80;26.80;;;;;;;32.63;40.92;100497.34;5016232;28;20496;-50
2021/07/13 03:30:46;;;;;;;37.37;25.93;;;;;;;32.50;40.99;100504.31;5016322;28;20477;-48
2021/07/13 03:33:14;;;;;;;40.00;26.60;;;;;;;32.40;41.65;100507.47;5015781;28;20488;-46
2021/07/13 03:35:42;;;;;;;41.10;26.93;;;;;;;32.59;41.23;100515.34;5015988;28;20488;-48
2021/07/13 03:38:10;;;;;;;41.17;27.50;;;;;;;32.43;41.44;100507.31;5015403;28;20584;-48
2021/07/13 03:40:38;;;;;;;40.30;27.23;;;;;;;32.41;41.43;100511.91;5016109;28;20550;-48
2021/07/13 03:43:07;;;;;;;42.60;28.50;;;;;;;32.20;42.07;100520.06;5015176;28;20785;-50
2021/07/13 03:45:35;;;;;;;45.87;26.97;;;;;;;32.33;41.72;100511.41;5015652;28;20481;-48
2021/07/13 03:48:02;;;;;;;47.43;26.43;;;;;;;32.30;41.86;100511.56;5015057;28;20473;-49
2021/07/13 03:50:33;;;;;;;38.67;24.60;;;;;;;32.36;41.60;100503.25;5013031;28;20540;-51
2021/07/13 03:53:00;;;;;;;40.40;24.90;;;;;;;32.42;41.42;100502.94;5015159;28;20485;-52
2021/07/13 03:55:28;;;;;;;34.97;25.43;;;;;;;32.28;41.68;100503.66;5015826;28;20800;-47
2021/07/13 03:57:56;;;;;;;45.77;28.27;;;;;;;32.32;41.51;100501.66;5014818;28;20477;-52
2021/07/13 04:00:28;;;;;;;39.80;26.20;;;;;;;32.38;41.21;100512.00;5015614;28;20485;-50
2021/07/13 04:02:56;;;;;;;42.37;25.03;;;;;;;32.19;41.95;100507.66;5014756;28;20485;-48
2021/07/13 04:05:24;;;;;;;35.43;24.93;;;;;;;32.34;41.71;100518.44;5015359;28;20534;-47
2021/07/13 04:07:51;;;;;;;36.60;24.67;;;;;;;32.40;41.35;100507.47;5014234;28;21007;-47
2021/07/13 04:10:19;;;;;;;35.77;25.23;;;;;;;32.56;41.46;100507.50;5015673;28;20608;-49
2021/07/13 04:12:47;;;;;;;35.90;24.67;;;;;;;32.39;41.57;100510.22;5014252;28;20782;-48
2021/07/13 04:15:14;;;;;;;34.17;24.53;;;;;;;32.31;41.61;100513.28;5015913;28;20457;-49
2021/07/13 04:17:43;;;;;;;39.10;24.73;;;;;;;32.41;41.54;100514.56;5014082;28;20555;-47
2021/07/13 04:20:12;;;;;;;34.30;25.83;;;;;;;32.69;41.15;100518.38;5015605;28;20481;-49
2021/07/13 04:22:41;;;;;;;38.03;25.30;;;;;;;32.51;41.26;100514.03;5014202;28;20493;-47
2021/07/13 04:25:09;;;;;;;35.40;23.40;;;;;;;32.56;40.92;100506.66;5015434;28;20487;-48
2021/07/13 04:27:37;;;;;;;37.00;24.63;;;;;;;32.55;41.41;100504.94;5013789;28;20539;-48
2021/07/13 04:30:06;;;;;;;39.30;23.70;;;;;;;32.80;40.70;100507.09;5011911;28;20995;-52
2021/07/13 04:32:34;;;;;;;34.13;24.53;;;;;;;32.52;41.39;100511.31;5014251;28;20558;-47
2021/07/13 04:35:03;;;;;;;36.27;24.17;;;;;;;32.90;40.33;100507.44;5012226;28;20898;-51
2021/07/13 04:37:32;;;;;;;36.47;23.60;;;;;;;32.79;40.71;100510.72;5013731;28;20482;-46
2021/07/13 04:40:00;;;;;;;39.83;25.33;;;;;;;32.39;41.80;100516.41;5015210;28;20573;-51
2021/07/13 04:42:28;;;;;;;32.70;24.30;;;;;;;32.39;41.44;100520.91;5014002;28;20487;-52
2021/07/13 04:44:55;;;;;;;45.67;25.00;;;;;;;32.53;41.47;100528.16;5015142;28;20576;-47
2021/07/13 04:47:23;;;;;;;39.00;24.20;;;;;;;32.41;41.37;100527.91;5013749;28;20495;-47
2021/07/13 04:49:50;;;;;;;35.97;24.77;;;;;;;32.49;41.50;100531.97;5015324;28;20485;-48
2021/07/13 04:52:19;;;;;;;36.40;23.60;;;;;;;32.35;41.39;100524.66;5013798;28;20488;-47
2021/07/13 04:54:47;;;;;;;38.00;24.40;;;;;;;32.48;41.87;100527.56;5015468;28;20460;-47
2021/07/13 04:57:14;;;;;;;43.53;25.20;;;;;;;32.37;41.72;100528.97;5013580;28;20492;-48
2021/07/13 04:59:42;;;;;;;35.60;24.90;;;;;;;32.69;41.14;100526.38;5015247;28;20966;-49
2021/07/13 05:02:09;;;;;;;35.53;24.40;;;;;;;32.22;42.08;100519.09;5013859;28;20484;-48
2021/07/13 05:04:37;;;;;;;36.60;26.17;;;;;;;32.30;41.85;100516.91;5015189;28;20539;-48
2021/07/13 05:07:05;;;;;;;31.53;24.17;;;;;;;32.58;41.40;100526.09;5013277;28;20499;-46
2021/07/13 05:09:34;;;;;;;37.37;25.50;;;;;;;32.72;41.16;100525.34;5015058;28;20466;-49
2021/07/13 05:12:01;;;;;;;41.10;25.30;;;;;;;32.65;41.14;100515.97;5013617;28;20488;-47
2021/07/13 05:14:29;;;;;;;59.70;43.67;;;;;;;32.73;41.05;100527.94;5015084;28;20459;-47
2021/07/13 05:16:56;;;;;;;43.53;31.03;;;;;;;32.62;41.35;100527.66;5017174;28;20911;-47
2021/07/13 05:19:24;;;;;;;49.53;31.90;;;;;;;32.49;41.50;100527.47;5018769;28;20558;-48
2021/07/13 05:21:56;;;;;;;49.67;30.03;;;;;;;32.71;41.42;100535.16;5017594;28;20471;-49
2021/07/13 05:24:25;;;;;;;39.50;29.70;;;;;;;32.68;41.03;100532.69;5018701;28;20460;-48
2021/07/13 05:26:54;;;;;;;43.87;30.17;;;;;;;32.46;42.06;100533.84;5017022;28;20499;-47
2021/07/13 05:29:22;;;;;;;39.47;29.23;;;;;;;32.21;42.58;100531.59;5018656;28;20468;-51
2021/07/13 05:31:49;;;;;;;38.23;27.60;;;;;;;32.49;41.81;100531.97;5017190;28;20484;-50
2021/07/13 05:34:18;;;;;;;40.97;28.57;;;;;;;32.28;42.11;100535.66;5018774;28;20547;-47
2021/07/13 05:36:45;;;;;;;45.07;30.33;;;;;;;32.24;42.12;100531.44;5016946;28;20485;-49
2021/07/13 05:39:13;;;;;;;37.63;24.73;;;;;;;32.68;41.13;100545.16;5018462;28;20471;-50
2021/07/13 05:41:40;;;;;;;41.23;30.30;;;;;;;32.37;41.93;100545.00;5017137;28;20481;-52
2021/07/13 05:44:09;;;;;;;33.73;24.60;;;;;;;32.59;41.76;100542.03;5018263;28;20461;-49
2021/07/13 05:46:37;;;;;;;55.37;35.47;;;;;;;32.43;41.91;100538.47;5016527;28;20483;-47
2021/07/13 05:49:04;;;;;;;35.93;25.73;;;;;;;31.75;43.36;100537.50;5018581;28;20461;-48
2021/07/13 05:51:32;;;;;;;40.00;28.57;;;;;;;32.20;42.17;100533.41;5016947;28;20910;-48
2021/07/13 05:53:59;;;;;;;38.80;27.07;;;;;;;32.69;41.46;100533.53;5015070;28;20461;-47
2021/07/13 05:56:27;;;;;;;35.77;25.30;;;;;;;32.76;41.37;100524.25;5016478;28;20481;-49
2021/07/13 05:58:55;;;;;;;50.50;33.63;;;;;;;32.86;40.87;100524.59;5018042;28;20471;-49
2021/07/13 06:01:24;;;;;;;36.73;26.83;;;;;;;32.66;41.37;100531.03;5016578;28;20491;-50
2021/07/13 06:03:52;;;;;;;36.13;23.30;;;;;;;32.22;42.30;100535.13;5018237;28;20461;-51
2021/07/13 06:06:19;;;;;;;34.40;24.77;;;;;;;32.50;41.72;100528.34;5016323;28;20481;-49
2021/07/13 06:08:47;;;;;;;32.87;24.23;;;;;;;32.97;40.97;100526.69;5017948;28;20905;-50
2021/07/13 06:11:15;;;;;;;37.93;25.20;;;;;;;32.99;40.86;100525.66;5016313;28;20477;-49
2021/07/13 06:13:43;;;;;;;34.70;25.40;;;;;;;32.26;42.12;100526.00;5017887;28;20457;-50
2021/07/13 06:16:11;;;;;;;29.40;22.60;;;;;;;32.41;41.69;100521.69;5016121;28;20504;-50
2021/07/13 06:18:40;;;;;;;30.70;22.37;;;;;;;32.38;41.86;100521.81;5017912;28;20469;-49
2021/07/13 06:21:09;;;;;;;30.40;23.27;;;;;;;32.65;41.60;100515.97;5014203;28;20465;-49
2021/07/13 06:23:36;;;;;;;33.93;24.00;;;;;;;32.96;40.77;100514.28;5017070;28;20541;-48
2021/07/13 06:26:04;;;;;;;35.10;24.57;;;;;;;33.08;40.39;100510.03;5011979;28;20791;-48
2021/07/13 06:28:31;;;;;;;31.53;22.03;;;;;;;33.21;40.18;100510.19;5017247;28;20467;-49
2021/07/13 06:30:59;;;;;;;31.53;22.70;;;;;;;32.95;40.90;100518.75;5016480;28;20478;-48
2021/07/13 06:33:26;;;;;;;33.37;23.37;;;;;;;32.91;40.58;100517.16;5017331;28;20994;-48
2021/07/13 06:35:55;;;;;;;29.70;22.73;;;;;;;32.99;40.79;100514.97;5015773;28;20464;-49
2021/07/13 06:38:24;;;;;;;29.00;21.23;;;;;;;33.44;39.83;100516.00;5017134;28;20531;-46
2021/07/13 06:40:51;;;;;;;32.87;22.63;;;;;;;33.11;40.54;100508.03;5016040;28;20477;-49
2021/07/13 06:43:19;;;;;;;28.43;20.17;;;;;;;32.86;40.74;100508.56;5017225;28;20580;-46
2021/07/13 06:45:46;;;;;;;31.53;21.10;;;;;;;32.96;40.66;100519.63;5015872;28;20485;-49
2021/07/13 06:48:14;;;;;;;26.10;19.20;;;;;;;32.88;40.88;100522.69;5016890;28;20497;-47
2021/07/13 06:50:41;;;;;;;36.47;28.83;;;;;;;33.25;40.19;100520.63;5017190;28;20477;-50
2021/07/13 06:53:10;;;;;;;27.60;21.33;;;;;;;33.46;39.75;100520.31;5015821;28;20938;-51
2021/07/13 06:55:38;;;;;;;33.13;23.47;;;;;;;33.54;40.00;100517.22;5016725;28;20896;-51
2021/07/13 06:58:05;;;;;;;29.70;21.70;;;;;;;33.45;39.87;100521.25;5015700;28;20504;-49
2021/07/13 07:00:33;;;;;;;23.50;18.60;;;;;;;32.76;41.13;100518.03;5016872;28;20496;-50
2021/07/13 07:03:01;;;;;;;23.97;18.80;;;;;;;32.98;40.91;100523.94;5015619;28;20754;-49
2021/07/13 07:05:28;;;;;;;22.40;18.17;;;;;;;32.99;40.84;100520.31;5016574;28;20501;-49
2021/07/13 07:07:56;;;;;;;28.10;22.23;;;;;;;33.07;40.62;100513.66;5015331;28;20503;-47
2021/07/13 07:10:25;;;;;;;29.80;22.57;;;;;;;33.38;40.33;100517.22;5016864;28;20477;-52
2021/07/13 07:12:53;;;;;;;29.20;22.20;;;;;;;33.31;40.28;100515.88;5015402;28;20493;-52
2021/07/13 07:15:21;;;;;;;23.07;17.70;;;;;;;33.31;40.47;100515.88;5016781;28;20461;-49
2021/07/13 07:17:49;;;;;;;27.00;20.50;;;;;;;32.95;40.91;100518.75;5015270;28;20490;-48
2021/07/13 07:20:18;;;;;;;26.87;19.40;;;;;;;33.53;39.78;100523.53;5016375;28;20477;-49
2021/07/13 07:22:46;;;;;;;22.00;17.17;;;;;;;32.37;42.18;100523.63;5015211;28;20549;-48
2021/07/13 07:25:14;;;;;;;21.37;15.60;;;;;;;32.35;42.14;100522.00;5016771;28;20781;-47
2021/07/13 07:27:43;;;;;;;20.73;17.00;;;;;;;32.90;41.15;100522.59;5014927;28;20481;-51
2021/07/13 07:30:12;;;;;;;23.87;17.57;;;;;;;33.16;40.57;100515.78;5016249;28;20568;-49
2021/07/13 07:32:40;;;;;;;22.70;15.67;;;;;;;32.67;41.37;100525.63;5015035;28;20488;-50
2021/07/13 07:35:09;;;;;;;22.73;15.80;;;;;;;31.83;43.21;100521.97;5016530;28;20467;-48
2021/07/13 07:37:38;;;;;;;20.00;17.73;;;;;;;27.42;53.02;100523.22;5014340;28;20485;-49
2021/07/13 07:40:08;;;;;;;24.93;17.17;;;;;;;26.45;56.25;100527.88;5016022;28;20997;-48
2021/07/13 07:42:36;;;;;;;18.87;15.77;;;;;;;26.48;56.41;100526.00;5014719;28;20486;-46
2021/07/13 07:45:06;;;;;;;21.93;16.63;;;;;;;26.13;57.83;100530.44;5016325;28;20471;-46
2021/07/13 07:47:34;;;;;;;25.70;16.47;;;;;;;26.31;57.93;100525.59;5014435;28;20492;-48
2021/07/13 07:50:01;;;;;;;19.80;15.37;;;;;;;26.01;58.86;100527.22;5016295;28;20589;-48
2021/07/13 07:52:29;;;;;;;26.30;16.60;;;;;;;26.34;58.41;100525.53;5011473;28;20521;-48
2021/07/13 07:54:58;;;;;;;26.13;19.50;;;;;;;26.05;58.98;100527.16;5016007;28;20458;-51
2021/07/13 07:57:25;;;;;;;17.93;16.03;;;;;;;25.83;59.62;100533.03;5014350;28;20485;-51
2021/07/13 07:59:53;;;;;;;20.63;16.03;;;;;;;25.90;58.57;100524.03;5015698;28;20493;-48
2021/07/13 08:02:22;;;;;;;17.90;15.37;;;;;;;26.01;57.60;100532.50;5014625;28;20491;-51
2021/07/13 08:04:50;;;;;;;25.40;19.20;;;;;;;26.20;57.07;100529.38;5015864;28;20753;-49
2021/07/13 08:07:18;;;;;;;22.30;16.80;;;;;;;26.32;57.29;100525.56;5013907;28;20931;-50
2021/07/13 08:09:46;;;;;;;20.90;15.80;;;;;;;26.29;56.64;100520.34;5015795;28;20564;-47
2021/07/13 08:12:14;;;;;;;19.53;13.90;;;;;;;26.23;56.72;100515.25;5014270;28;20477;-50
2021/07/13 08:14:41;;;;;;;20.67;13.70;;;;;;;26.19;58.54;100514.44;5015914;28;20464;-49
2021/07/13 08:17:09;;;;;;;17.93;14.63;;;;;;;26.26;56.67;100508.09;5014031;28;20787;-46
2021/07/13 08:19:39;;;;;;;24.80;14.87;;;;;;;26.29;57.19;100504.50;5015680;28;20488;-50
2021/07/13 08:22:07;;;;;;;20.47;13.80;;;;;;;26.46;55.98;100501.41;5011539;28;20937;-53
2021/07/13 08:24:35;;;;;;;19.07;13.47;;;;;;;26.29;55.68;100499.22;5015562;28;20457;-49
2021/07/13 08:27:03;;;;;;;15.30;13.33;;;;;;;26.37;56.38;100504.28;5011378;28;20496;-48
2021/07/13 08:29:31;;;;;;;17.20;13.60;;;;;;;26.52;55.16;100500.34;5015696;28;20461;-49
2021/07/13 08:31:59;;;;;;;16.97;13.40;;;;;;;26.61;54.08;100499.22;5014165;28;20485;-48
2021/07/13 08:34:27;;;;;;;17.97;13.33;;;;;;;26.55;53.87;100501.13;5015438;28;20461;-51
2021/07/13 08:36:56;;;;;;;19.90;13.97;;;;;;;26.72;53.96;100501.53;5013785;28;20479;-48
2021/07/13 08:39:24;;;;;;;14.60;12.43;;;;;;;26.77;53.11;100496.97;5015380;28;20781;-48
2021/07/13 08:41:52;;;;;;;16.53;12.07;;;;;;;26.99;52.15;100505.16;5013353;28;20489;-48
2021/07/13 08:44:20;;;;;;;16.20;13.00;;;;;;;27.14;51.99;100502.91;5015366;28;20551;-47
2021/07/13 08:46:47;;;;;;;14.33;12.40;;;;;;;27.12;52.10;100499.47;5013639;28;20489;-48
2021/07/13 08:49:15;;;;;;;15.40;12.10;;;;;;;27.07;52.63;100500.47;5015265;28;20461;-49
2021/07/13 08:51:43;;;;;;;14.40;12.63;;;;;;;27.03;52.24;100497.97;5017374;28;20503;-49
2021/07/13 08:54:12;;;;;;;22.13;11.97;;;;;;;27.43;51.55;100498.47;5019169;28;20460;-48
2021/07/13 08:56:39;;;;;;;14.43;12.37;;;;;;;27.29;52.62;100490.97;5017761;28;20488;-47
2021/07/13 08:59:07;;;;;;;15.87;12.83;;;;;;;27.26;52.53;100494.59;5019092;28;20469;-51
2021/07/13 09:01:35;;;;;;;14.40;11.57;;;;;;;27.18;53.69;100493.97;5017862;28;20474;-48
2021/07/13 09:04:05;;;;;;;14.60;12.37;;;;;;;27.34;53.30;100489.06;5019207;28;20552;-49
2021/07/13 09:06:54;;;;;;;17.50;13.50;;;;;;;27.29;51.38;100486.56;5017334;28;20799;-50
2021/07/13 09:09:25;;;;;;;15.63;11.10;;;;;;;27.29;49.86;100488.31;5019301;28;20457;-52
2021/07/13 09:12:11;;;;;;;14.53;10.40;;;;;;;27.41;49.81;100489.69;5017764;28;20922;-48
2021/07/13 09:14:54;;;;;;;16.07;12.87;;;;;;;27.57;49.31;100484.78;5019043;28;20461;-47
2021/07/13 09:17:36;;;;;;;15.10;10.60;;;;;;;27.75;49.50;100497.41;5017292;28;20918;-51
2021/07/13 09:20:16;;;;;;;11.87;10.20;;;;;;;27.73;50.83;100490.44;5018932;28;20953;-48
2021/07/13 09:22:55;;;;;;;14.33;10.77;;;;;;;27.66;50.66;100496.84;5017535;28;20926;-49
2021/07/13 09:25:30;;;;;;;12.10;10.57;;;;;;;27.70;51.48;100486.13;5018440;28;20492;-48
2021/07/13 09:28:15;;;;;;;13.53;11.37;;;;;;;27.69;50.36;100488.81;5017339;28;20484;-48
2021/07/13 09:30:45;;;;;;;16.00;12.80;;;;;;;27.89;51.57;100486.34;5019022;28;20737;-49
2021/07/13 09:33:15;;;;;;;12.60;11.10;;;;;;;27.97;49.56;100493.13;5018096;28;20461;-47
2021/07/13 09:36:08;;;;;;;14.87;10.40;;;;;;;28.00;48.78;100485.94;5018348;28;20465;-51
2021/07/13 09:38:37;;;;;;;18.70;15.60;;;;;;;28.00;49.10;100493.06;5018276;28;20458;-51
2021/07/13 09:41:10;;;;;;;15.53;11.57;;;;;;;27.94;48.83;100486.16;5017134;28;20519;-49
2021/07/13 09:43:45;;;;;;;38.53;28.00;;;;;;;27.90;49.16;100493.34;5018320;28;20471;-47
2021/07/13 09:46:35;;;;;;;14.97;10.70;;;;;;;27.77;49.43;100486.75;5016548;28;20918;-49
2021/07/13 09:49:21;;;;;;;14.10;10.73;;;;;;;27.49;50.29;100485.03;5018539;28;20453;-49
2021/07/13 09:51:55;;;;;;;14.37;11.57;;;;;;;27.57;49.92;100480.38;5016931;28;20481;-49
2021/07/13 09:54:31;;;;;;;13.80;11.50;;;;;;;27.79;51.04;100479.66;5014951;28;20457;-51
2021/07/13 09:57:00;;;;;;;13.47;11.70;;;;;;;28.13;50.72;100477.53;5016669;28;20793;-52
2021/07/13 09:59:28;;;;;;;12.30;10.50;;;;;;;27.92;50.47;100473.91;5018011;28;20472;-47
2021/07/13 10:01:55;;;;;;;12.40;10.47;;;;;;;28.17;48.50;100468.56;5016692;28;20531;-47
2021/07/13 10:04:23;;;;;;;12.90;10.00;;;;;;;27.98;49.61;100471.88;5017926;28;20995;-49
2021/07/13 10:06:52;;;;;;;10.50;9.40;;;;;;;27.82;48.31;100468.91;5016245;28;20823;-50
2021/07/13 10:09:24;;;;;;;12.10;9.33;;;;;;;27.54;49.23;100469.84;5018166;28;20465;-48
2021/07/13 10:11:52;;;;;;;11.30;8.80;;;;;;;28.56;47.49;100464.53;5016772;28;20481;-50
2021/07/13 10:14:22;;;;;;;13.10;8.60;;;;;;;28.66;46.34;100465.88;5017968;28;20449;-49
2021/07/13 10:16:50;;;;;;;11.50;9.47;;;;;;;27.99;48.20;100464.81;5015788;28;20484;-49
2021/07/13 10:19:18;;;;;;;11.80;9.60;;;;;;;28.22;46.66;100464.00;5017698;28;20503;-48
2021/07/13 10:21:47;;;;;;;9.17;8.23;;;;;;;28.38;47.98;100461.66;5016559;28;20492;-52
2021/07/13 10:24:14;;;;;;;10.63;9.50;;;;;;;28.42;46.49;100463.28;5017851;28;20457;-48
2021/07/13 10:26:47;;;;;;;12.70;9.50;;;;;;;28.26;48.49;100472.72;5012834;28;20499;-48
2021/07/13 10:29:40;;;;;;;11.37;8.83;;;;;;;28.03;47.53;100469.06;5017570;28;20485;-53
2021/07/13 10:32:30;;;;;;;11.83;9.70;;;;;;;27.97;48.62;100471.94;5016216;28;20488;-48
2021/07/13 10:35:01;;;;;;;10.10;9.00;;;;;;;28.35;47.27;100467.03;5014556;28;20504;-51
2021/07/13 10:37:30;;;;;;;11.23;9.30;;;;;;;28.13;47.44;100473.13;5015701;28;20497;-48
2021/07/13 10:39:59;;;;;;;10.30;8.83;;;;;;;28.54;45.86;100472.53;5017339;28;20485;-47
2021/07/13 10:42:47;;;;;;;11.27;9.40;;;;;;;29.11;44.14;100472.13;5015860;28;20592;-51
2021/07/13 10:45:18;;;;;;;12.77;10.37;;;;;;;29.31;44.76;100477.50;5017427;28;20457;-51
2021/07/13 10:48:16;;;;;;;19.70;11.90;;;;;;;29.05;43.73;100472.38;5015546;28;20493;-50
2021/07/13 10:50:49;;;;;;;10.60;8.17;;;;;;;29.32;43.82;100468.66;4956726;29;20504;-52
2021/07/13 10:53:20;;;;;;;13.37;10.13;;;;;;;29.57;42.84;100468.50;5005455;28;20482;-52
2021/07/13 10:55:50;;;;;;;11.97;9.80;;;;;;;29.73;43.03;100474.00;5015848;28;20461;-50
2021/07/13 10:58:40;;;;;;;14.43;11.87;;;;;;;29.48;43.52;100468.91;5016981;28;20803;-51
2021/07/13 11:01:14;;;;;;;12.13;10.70;;;;;;;29.18;44.82;100466.56;5015241;28;20545;-49
2021/07/13 11:04:15;;;;;;;12.30;9.63;;;;;;;29.23;44.01;100469.88;5017254;28;20464;-51
2021/07/13 11:06:56;;;;;;;10.57;8.70;;;;;;;29.00;43.64;100470.84;5015132;28;20945;-49
2021/07/13 11:09:27;;;;;;;12.87;10.43;;;;;;;28.93;44.77;100473.72;5016718;28;20491;-50
2021/07/13 11:12:12;;;;;;;9.80;8.13;;;;;;;29.26;43.20;100467.09;5015702;28;20487;-47
2021/07/13 11:14:59;;;;;;;11.07;8.53;;;;;;;29.80;42.73;100477.28;5016223;28;20463;-50
2021/07/13 11:17:29;;;;;;;10.00;8.67;;;;;;;30.36;40.85;100479.28;5015165;28;20496;-50
2021/07/13 11:20:11;;;;;;;13.67;9.20;;;;;;;30.31;40.96;100474.19;5016598;28;20489;-52
2021/07/13 11:22:46;;;;;;;9.83;8.17;;;;;;;30.55;41.08;100477.50;5014933;28;20997;-49